Time;durP1;ratioP1;P1;durP2;ratioP2;P2;SDS_P1;SDS_P2;PMS_P1;PMS_P2;Temp;Humidity;BMP_temperature;BMP_pressure;BME280_temperature;BME280_humidity;BME280_pressure;Samples;Min_cycle;Max_cycle;Signal;HPM_P1;HPM_P2
2023/03/22 00:00:51;;;;;;;24.05;9.02;;;9.70;99.90;;;;;;5083121;28;20039;-72
2023/03/22 00:03:17;;;;;;;22.48;10.00;;;9.70;99.90;;;;;;5117004;28;20040;-74
2023/03/22 00:05:43;;;;;;;25.80;10.45;;;9.60;99.90;;;;;;5117623;28;20036;-73
2023/03/22 00:08:12;;;;;;;22.05;10.05;;;9.60;99.90;;;;;;5099094;28;20130;-72
2023/03/22 00:10:39;;;;;;;21.92;9.32;;;9.50;99.90;;;;;;5099078;28;20100;-72
2023/03/22 00:13:06;;;;;;;22.10;8.40;;;9.50;99.90;;;;;;5098899;28;20116;-72
2023/03/22 00:15:32;;;;;;;24.83;8.82;;;9.50;99.90;;;;;;5117389;28;20044;-73
2023/03/22 00:17:58;;;;;;;23.52;8.35;;;9.40;99.90;;;;;;5098562;28;20054;-73
2023/03/22 00:20:25;;;;;;;20.35;8.45;;;9.30;99.90;;;;;;5116887;28;20083;-72
2023/03/22 00:22:51;;;;;;;17.08;8.10;;;9.20;99.90;;;;;;5116756;28;20126;-72
2023/03/22 00:25:17;;;;;;;19.05;7.80;;;9.10;99.90;;;;;;5116381;28;20122;-73
2023/03/22 00:27:43;;;;;;;20.52;8.18;;;9.10;99.90;;;;;;5116749;28;20052;-73
2023/03/22 00:30:10;;;;;;;19.00;8.13;;;9.10;99.90;;;;;;5116635;28;20392;-74
2023/03/22 00:32:37;;;;;;;15.40;7.82;;;9.10;99.90;;;;;;5081582;28;20079;-73
2023/03/22 00:35:06;;;;;;;21.60;8.32;;;9.00;99.90;;;;;;5116630;28;20051;-73
2023/03/22 00:37:32;;;;;;;23.60;8.38;;;9.00;99.90;;;;;;5116869;28;20471;-71
2023/03/22 00:39:59;;;;;;;25.23;9.15;;;9.00;99.90;;;;;;5098354;28;20047;-72
2023/03/22 00:42:25;;;;;;;23.67;8.82;;;9.00;99.90;;;;;;5116236;28;20048;-74
2023/03/22 00:44:51;;;;;;;20.50;8.27;;;9.00;99.90;;;;;;5116391;28;20425;-73
2023/03/22 00:47:17;;;;;;;19.00;8.00;;;9.00;99.90;;;;;;5116500;28;20039;-72
2023/03/22 00:49:43;;;;;;;21.35;8.18;;;9.00;99.90;;;;;;5116046;28;20051;-74
2023/03/22 00:52:08;;;;;;;20.92;8.45;;;9.10;99.90;;;;;;5098205;28;20122;-73
2023/03/22 00:54:34;;;;;;;22.00;8.60;;;9.20;99.90;;;;;;5116489;28;20043;-72
2023/03/22 00:57:00;;;;;;;18.50;7.65;;;9.20;99.90;;;;;;5116048;28;20478;-72
2023/03/22 00:59:27;;;;;;;25.33;8.63;;;9.20;99.90;;;;;;5081065;28;20377;-73
2023/03/22 01:01:53;;;;;;;18.17;7.32;;;9.30;99.90;;;;;;5116040;28;20043;-73
2023/03/22 01:04:24;;;;;;;18.23;7.28;;;9.30;99.90;;;;;;5115880;28;20043;-73
2023/03/22 01:06:57;;;;;;;22.05;7.15;;;9.30;99.90;;;;;;5098705;28;20055;-72
2023/03/22 01:09:27;;;;;;;21.88;7.50;;;9.30;99.90;;;;;;5115548;28;20467;-73
2023/03/22 01:11:55;;;;;;;16.35;5.80;;;9.30;99.90;;;;;;5115729;28;20055;-73
2023/03/22 01:14:22;;;;;;;26.40;7.18;;;9.40;99.90;;;;;;5115960;28;20386;-71
2023/03/22 01:16:47;;;;;;;20.27;6.07;;;9.40;99.90;;;;;;5116483;28;20051;-73
2023/03/22 01:19:14;;;;;;;14.63;6.10;;;9.50;99.90;;;;;;5115371;28;20484;-72
2023/03/22 01:21:39;;;;;;;17.83;6.18;;;9.50;99.90;;;;;;5116158;28;20058;-73
2023/03/22 01:24:05;;;;;;;16.65;5.90;;;9.50;99.90;;;;;;5115810;28;20036;-73
2023/03/22 01:26:31;;;;;;;20.50;5.77;;;9.50;99.90;;;;;;5097833;28;20391;-73
2023/03/22 01:28:57;;;;;;;16.48;5.55;;;9.50;99.90;;;;;;5097479;28;20047;-72
2023/03/22 01:31:23;;;;;;;18.88;5.85;;;9.50;99.90;;;;;;5116148;28;20039;-71
2023/03/22 01:33:48;;;;;;;14.40;4.90;;;9.50;99.90;;;;;;5115403;28;20039;-73
2023/03/22 01:36:14;;;;;;;15.30;4.45;;;9.50;99.90;;;;;;5115321;28;20135;-73
2023/03/22 01:38:40;;;;;;;13.93;4.03;;;9.50;99.90;;;;;;5116135;28;20053;-73
2023/03/22 01:41:06;;;;;;;17.08;4.10;;;9.50;99.90;;;;;;5115569;28;20619;-72
2023/03/22 01:43:32;;;;;;;13.18;4.78;;;9.50;99.90;;;;;;5080047;28;20035;-72
2023/03/22 01:45:57;;;;;;;14.90;3.90;;;9.50;99.90;;;;;;5115159;28;20047;-72
2023/03/22 01:48:28;;;;;;;13.85;3.97;;;9.50;99.90;;;;;;5115019;28;20400;-72
2023/03/22 01:51:07;;;;;;;13.35;3.00;;;9.50;99.90;;;;;;5115928;28;20064;-73
2023/03/22 01:53:39;;;;;;;13.70;2.75;;;9.50;99.90;;;;;;5096764;28;20039;-73
2023/03/22 01:56:06;;;;;;;15.20;2.85;;;9.50;99.90;;;;;;5115557;28;20082;-72
2023/03/22 01:58:34;;;;;;;13.18;2.63;;;9.50;99.90;;;;;;5114818;28;20081;-72
2023/03/22 02:01:01;;;;;;;17.77;3.35;;;9.50;99.90;;;;;;5114095;28;20051;-69
2023/03/22 02:03:43;;;;;;;14.03;3.53;;;9.50;99.90;;;;;;5115597;28;20097;-74
2023/03/22 02:06:09;;;;;;;10.63;3.28;;;9.50;99.90;;;;;;5115369;28;20046;-71
2023/03/22 02:08:35;;;;;;;13.25;3.00;;;9.50;99.90;;;;;;5114759;28;20406;-73
2023/03/22 02:11:02;;;;;;;15.52;2.90;;;9.50;99.90;;;;;;5114363;28;20050;-73
2023/03/22 02:13:41;;;;;;;15.88;3.08;;;9.50;99.90;;;;;;5096381;28;20051;-73
2023/03/22 02:16:20;;;;;;;15.85;2.90;;;9.50;99.90;;;;;;5079736;28;20540;-74
2023/03/22 02:19:21;;;;;;;11.73;2.95;;;9.50;99.90;;;;;;5114834;28;20052;-73
2023/03/22 02:22:37;;;;;;;11.95;3.00;;;9.50;99.90;;;;;;5103573;28;20083;-72
2023/03/22 02:25:24;;;;;;;11.25;2.38;;;9.50;99.90;;;;;;5031688;28;20521;-73
2023/03/22 02:28:41;;;;;;;15.13;2.50;;;9.50;99.90;;;;;;5114602;28;20081;-74
2023/03/22 02:31:19;;;;;;;14.18;2.75;;;9.50;99.90;;;;;;5032112;28;20048;-72
2023/03/22 02:34:22;;;;;;;12.70;3.20;;;9.50;99.90;;;;;;5015573;28;20068;-72
2023/03/22 02:37:03;;;;;;;13.25;2.80;;;9.50;99.90;;;;;;5087769;28;20070;-73
2023/03/22 02:39:52;;;;;;;17.70;3.00;;;9.50;99.90;;;;;;5114536;28;20379;-72
2023/03/22 02:42:36;;;;;;;12.88;3.50;;;9.40;99.90;;;;;;5115001;28;20047;-73
2023/03/22 02:45:08;;;;;;;13.77;2.85;;;9.50;99.90;;;;;;5114170;28;20178;-71
2023/03/22 02:47:58;;;;;;;11.88;2.80;;;9.50;99.90;;;;;;5114105;28;20135;-73
2023/03/22 02:50:32;;;;;;;13.85;3.38;;;9.50;99.90;;;;;;5114649;28;20054;-75
2023/03/22 02:53:21;;;;;;;16.55;2.72;;;9.40;99.90;;;;;;5114767;28;20122;-73
2023/03/22 02:56:01;;;;;;;15.63;3.20;;;9.40;99.90;;;;;;5095965;28;20044;-73
2023/03/22 02:58:37;;;;;;;10.90;2.42;;;9.40;99.90;;;;;;5114126;28;20040;-73
2023/03/22 03:01:09;;;;;;;17.08;2.78;;;9.40;99.90;;;;;;5114289;28;20498;-72
2023/03/22 03:03:36;;;;;;;9.60;2.45;;;9.40;99.90;;;;;;5113936;28;20086;-72
2023/03/22 03:06:12;;;;;;;10.35;2.67;;;9.40;99.90;;;;;;5113870;28;20039;-72
2023/03/22 03:08:39;;;;;;;16.02;2.95;;;9.40;99.90;;;;;;5096824;28;20089;-74
2023/03/22 03:11:05;;;;;;;13.85;2.40;;;9.40;99.90;;;;;;5113991;28;20051;-73
2023/03/22 03:13:31;;;;;;;15.65;2.50;;;9.40;99.90;;;;;;5117219;28;20365;-73
2023/03/22 03:16:00;;;;;;;13.13;2.65;;;9.40;99.90;;;;;;5118662;28;20054;-72
2023/03/22 03:18:46;;;;;;;16.92;2.47;;;9.30;99.90;;;;;;5098442;28;20084;-72
2023/03/22 03:21:17;;;;;;;12.33;3.27;;;9.30;99.90;;;;;;5100064;28;20472;-72
2023/03/22 03:23:54;;;;;;;9.00;2.10;;;9.30;99.90;;;;;;5118706;28;20048;-73
2023/03/22 03:26:36;;;;;;;11.65;2.35;;;9.30;99.90;;;;;;5118793;28;20046;-72
2023/03/22 03:29:27;;;;;;;11.80;2.47;;;9.30;99.90;;;;;;5118604;28;20130;-73
2023/03/22 03:32:03;;;;;;;11.00;2.22;;;9.30;99.90;;;;;;5118375;28;20100;-73
2023/03/22 03:34:48;;;;;;;10.67;2.17;;;9.30;99.90;;;;;;5117776;28;20039;-73
2023/03/22 03:37:21;;;;;;;13.05;2.65;;;9.30;99.90;;;;;;5099702;28;20048;-72
2023/03/22 03:40:13;;;;;;;8.80;2.60;;;9.30;99.90;;;;;;5118216;28;20050;-73
2023/03/22 03:42:49;;;;;;;10.43;2.40;;;9.30;99.90;;;;;;5073320;28;20056;-73
2023/03/22 03:45:16;;;;;;;11.90;2.40;;;9.30;99.90;;;;;;5118415;28;20043;-73
2023/03/22 03:47:45;;;;;;;17.23;3.05;;;9.40;99.90;;;;;;5100213;28;20135;-71
2023/03/22 03:50:14;;;;;;;12.30;3.10;;;9.40;99.90;;;;;;5117371;28;20184;-72
2023/03/22 03:52:40;;;;;;;10.70;2.88;;;9.40;99.90;;;;;;5118068;28;20126;-73
2023/03/22 03:55:06;;;;;;;13.80;3.80;;;9.50;99.90;;;;;;5117408;28;20387;-73
2023/03/22 03:57:32;;;;;;;17.50;4.05;;;9.50;99.90;;;;;;5099896;28;20043;-72
2023/03/22 03:59:58;;;;;;;18.88;3.90;;;9.50;99.90;;;;;;5117256;28;20050;-71
2023/03/22 04:02:24;;;;;;;12.90;4.05;;;9.50;99.90;;;;;;5118015;28;20122;-71
2023/03/22 04:04:49;;;;;;;12.20;4.47;;;9.50;99.90;;;;;;5098860;28;20050;-73
2023/03/22 04:07:15;;;;;;;20.75;5.57;;;9.60;99.90;;;;;;5117221;28;20039;-73
2023/03/22 04:09:41;;;;;;;16.02;5.72;;;9.60;99.90;;;;;;5117262;28;20044;-73
2023/03/22 04:12:08;;;;;;;15.65;5.57;;;9.60;99.90;;;;;;5117573;28;20054;-70
2023/03/22 04:14:34;;;;;;;;;;;9.60;99.90;;;;;;5101029;28;20078;-73
2023/03/22 04:17:00;;;;;;;22.00;6.50;;;9.60;99.90;;;;;;5119747;28;19920;-72
2023/03/22 04:19:26;;;;;;;19.55;6.47;;;9.70;99.90;;;;;;5118928;28;20067;-72
2023/03/22 04:21:52;;;;;;;18.50;7.22;;;9.60;99.90;;;;;;5100613;28;20047;-74
2023/03/22 04:24:19;;;;;;;20.65;8.30;;;9.60;99.90;;;;;;5099294;28;20092;-75
2023/03/22 04:26:45;;;;;;;21.65;7.93;;;9.70;99.90;;;;;;5098878;28;20381;-72
2023/03/22 04:29:10;;;;;;;23.67;8.82;;;9.70;99.90;;;;;;5116490;28;20059;-73
2023/03/22 04:31:37;;;;;;;24.15;8.57;;;9.70;99.90;;;;;;5116585;28;20096;-73
2023/03/22 04:34:04;;;;;;;24.27;9.98;;;9.70;99.90;;;;;;5116643;28;20052;-71
2023/03/22 04:36:35;;;;;;;19.42;8.88;;;9.70;99.90;;;;;;5116596;28;20150;-71
2023/03/22 04:39:06;;;;;;;22.85;10.00;;;9.70;99.90;;;;;;5116520;28;20082;-73
2023/03/22 04:41:32;;;;;;;23.30;9.45;;;9.70;99.90;;;;;;5098516;28;20043;-72
2023/03/22 04:44:02;;;;;;;24.23;9.82;;;9.70;99.90;;;;;;5116277;28;20104;-73
2023/03/22 04:46:29;;;;;;;26.67;9.57;;;9.70;99.90;;;;;;5115963;28;20459;-72
2023/03/22 04:48:55;;;;;;;23.77;9.40;;;9.60;99.90;;;;;;5097977;28;20047;-73
2023/03/22 04:51:21;;;;;;;29.55;10.88;;;9.60;99.90;;;;;;5116072;28;20112;-73
2023/03/22 04:53:47;;;;;;;26.75;10.57;;;9.60;99.90;;;;;;5116220;28;20074;-73
2023/03/22 04:56:14;;;;;;;23.48;10.60;;;9.60;99.90;;;;;;5099111;28;20055;-73
2023/03/22 04:58:41;;;;;;;25.17;11.63;;;9.60;99.90;;;;;;5081002;28;20043;-73
2023/03/22 05:01:08;;;;;;;;;;;9.60;99.90;;;;;;5098575;28;20040;-73
2023/03/22 05:03:35;;;;;;;24.05;11.13;;;9.60;99.90;;;;;;5097801;28;20279;-73
2023/03/22 05:06:03;;;;;;;24.73;10.98;;;9.60;99.90;;;;;;5115979;28;20184;-73
2023/03/22 05:08:30;;;;;;;29.85;10.93;;;9.60;99.90;;;;;;5115963;28;20051;-73
2023/03/22 05:10:58;;;;;;;27.60;11.75;;;9.60;99.90;;;;;;5098583;28;20058;-73
2023/03/22 05:13:26;;;;;;;25.10;10.80;;;9.60;99.90;;;;;;5115789;28;20122;-72
2023/03/22 05:15:52;;;;;;;28.83;12.38;;;9.60;99.90;;;;;;5097702;28;20047;-73
2023/03/22 05:18:25;;;;;;;27.33;11.10;;;9.60;99.90;;;;;;5115403;28;20499;-74
2023/03/22 05:20:54;;;;;;;28.20;11.52;;;9.60;99.90;;;;;;5097468;28;20071;-72
2023/03/22 05:23:21;;;;;;;26.42;10.98;;;9.60;99.90;;;;;;5115541;28;20039;-72
2023/03/22 05:25:48;;;;;;;27.55;11.00;;;9.60;99.90;;;;;;5097366;28;20043;-73
2023/03/22 05:28:14;;;;;;;;;;;9.60;99.90;;;;;;5115968;28;20048;-73
2023/03/22 05:30:41;;;;;;;27.60;11.80;;;9.60;99.90;;;;;;5115323;28;19919;-75
2023/03/22 05:33:08;;;;;;;26.55;11.00;;;9.60;99.90;;;;;;5115897;28;20051;-73
2023/03/22 05:35:35;;;;;;;24.33;10.93;;;9.70;99.90;;;;;;5114234;28;20070;-72
2023/03/22 05:38:01;;;;;;;29.27;12.30;;;9.70;99.90;;;;;;5115206;28;20043;-74
2023/03/22 05:40:27;;;;;;;27.23;11.27;;;9.70;99.90;;;;;;5096711;28;20514;-75
2023/03/22 05:42:54;;;;;;;26.13;10.68;;;9.70;99.90;;;;;;5114991;28;20048;-71
2023/03/22 05:45:21;;;;;;;24.20;11.05;;;9.70;99.90;;;;;;5115384;28;20071;-73
2023/03/22 05:47:47;;;;;;;25.55;11.35;;;9.70;99.90;;;;;;5115009;28;20086;-72
2023/03/22 05:50:16;;;;;;;26.10;11.23;;;9.70;99.90;;;;;;5116035;28;20097;-73
2023/03/22 05:52:43;;;;;;;24.83;10.68;;;9.70;99.90;;;;;;5115266;28;20083;-73
2023/03/22 05:55:16;;;;;;;21.83;9.70;;;9.70;99.90;;;;;;5096970;28;20132;-73
2023/03/22 05:57:43;;;;;;;22.55;10.05;;;9.80;99.90;;;;;;5115719;28;20047;-72
2023/03/22 06:00:13;;;;;;;25.83;10.23;;;9.80;99.90;;;;;;5096994;28;20048;-72
2023/03/22 06:02:40;;;;;;;25.30;9.85;;;9.80;99.90;;;;;;5097780;28;20043;-73
2023/03/22 06:05:07;;;;;;;25.50;10.33;;;9.80;99.90;;;;;;5097344;28;20044;-72
2023/03/22 06:07:33;;;;;;;25.88;11.13;;;9.80;99.90;;;;;;5114724;28;20043;-72
2023/03/22 06:09:59;;;;;;;22.52;10.73;;;9.80;99.90;;;;;;5114686;28;20054;-73
2023/03/22 06:12:25;;;;;;;23.58;10.20;;;9.90;99.90;;;;;;5096268;28;20046;-74
2023/03/22 06:14:51;;;;;;;22.67;9.07;;;9.90;99.90;;;;;;5114878;28;20043;-71
2023/03/22 06:17:17;;;;;;;22.88;8.50;;;9.80;99.90;;;;;;5114584;28;20045;-73
2023/03/22 06:19:43;;;;;;;22.52;8.65;;;9.90;99.90;;;;;;5114207;28;20059;-73
2023/03/22 06:22:09;;;;;;;22.80;9.80;;;9.80;99.90;;;;;;5114429;28;20483;-72
2023/03/22 06:24:35;;;;;;;27.10;8.60;;;9.80;99.90;;;;;;5096196;28;20180;-74
2023/03/22 06:27:01;;;;;;;21.75;8.95;;;9.90;99.90;;;;;;5114326;28;20495;-73
2023/03/22 06:29:27;;;;;;;22.50;8.63;;;9.90;99.90;;;;;;5114382;28;20047;-71
2023/03/22 06:31:52;;;;;;;21.25;9.23;;;9.90;99.90;;;;;;5114245;28;20127;-72
2023/03/22 06:34:18;;;;;;;23.95;8.45;;;9.90;99.90;;;;;;5114221;28;20048;-72
2023/03/22 06:36:44;;;;;;;25.73;9.05;;;9.90;99.90;;;;;;5079804;28;20047;-73
2023/03/22 06:39:10;;;;;;;20.92;8.50;;;9.90;99.90;;;;;;5114315;28;20047;-72
2023/03/22 06:41:35;;;;;;;18.52;8.13;;;10.00;99.90;;;;;;5114489;28;20100;-72
2023/03/22 06:44:01;;;;;;;19.27;7.90;;;10.10;99.90;;;;;;5114478;28;20467;-72
2023/03/22 06:46:27;;;;;;;17.92;7.63;;;10.20;99.90;;;;;;5113847;28;20091;-73
2023/03/22 06:48:53;;;;;;;16.45;7.60;;;10.30;99.90;;;;;;5114577;28;20049;-73
2023/03/22 06:51:19;;;;;;;15.90;6.78;;;10.30;99.90;;;;;;5114738;28;20450;-73
2023/03/22 06:53:45;;;;;;;17.65;7.05;;;10.40;99.90;;;;;;5114549;28;20096;-72
2023/03/22 06:56:11;;;;;;;17.63;5.90;;;10.50;99.90;;;;;;5096205;28;20046;-73
2023/03/22 06:58:36;;;;;;;17.23;6.68;;;10.60;99.90;;;;;;5114066;28;20472;-73
2023/03/22 07:01:02;;;;;;;20.50;6.82;;;10.70;99.90;;;;;;5113750;28;20365;-73
2023/03/22 07:03:28;;;;;;;17.15;6.53;;;10.80;99.90;;;;;;5096268;28;20036;-72
2023/03/22 07:06:00;;;;;;;15.85;6.20;;;10.80;99.90;;;;;;5112875;28;20126;-72
2023/03/22 07:08:26;;;;;;;15.57;6.88;;;10.90;99.90;;;;;;5114740;28;20063;-72
2023/03/22 07:10:52;;;;;;;15.15;5.95;;;10.90;99.90;;;;;;5114363;28;20047;-72
2023/03/22 07:13:17;;;;;;;18.63;5.90;;;11.00;99.90;;;;;;5113475;28;20055;-72
2023/03/22 07:15:43;;;;;;;13.75;5.47;;;11.00;99.90;;;;;;5113830;28;20044;-71
2023/03/22 07:18:09;;;;;;;16.13;5.43;;;11.00;99.90;;;;;;5095952;28;20051;-72
2023/03/22 07:20:37;;;;;;;15.27;4.80;;;11.00;99.90;;;;;;5113878;28;20495;-71
2023/03/22 07:23:03;;;;;;;13.38;4.97;;;11.00;99.90;;;;;;5113732;28;20136;-73
2023/03/22 07:25:29;;;;;;;163.83;14.63;;;11.00;99.90;;;;;;5079274;28;20055;-71
2023/03/22 07:27:55;;;;;;;15.30;5.07;;;10.90;99.90;;;;;;5113801;28;20438;-72
2023/03/22 07:30:21;;;;;;;16.17;4.83;;;10.90;99.90;;;;;;5095569;28;20395;-73
2023/03/22 07:32:46;;;;;;;14.45;5.22;;;11.00;99.90;;;;;;5095648;28;20289;-74
2023/03/22 07:35:12;;;;;;;13.07;3.85;;;11.00;99.90;;;;;;5114264;28;20049;-73
2023/03/22 07:37:38;;;;;;;13.82;4.88;;;11.10;99.90;;;;;;5113645;28;20545;-74
2023/03/22 07:40:05;;;;;;;17.33;5.05;;;11.10;99.90;;;;;;5113617;28;20031;-73
2023/03/22 07:42:30;;;;;;;21.73;5.85;;;11.20;99.90;;;;;;5113660;28;20090;-74
2023/03/22 07:44:56;;;;;;;13.57;4.32;;;11.20;99.90;;;;;;5095440;28;20468;-73
2023/03/22 07:47:22;;;;;;;13.45;4.40;;;11.20;99.90;;;;;;5095374;28;20048;-72
2023/03/22 07:49:48;;;;;;;12.15;4.13;;;11.20;99.90;;;;;;5095313;28;20047;-72
2023/03/22 07:52:13;;;;;;;15.30;5.28;;;11.20;99.90;;;;;;5095373;28;20044;-72
2023/03/22 07:54:39;;;;;;;12.20;4.20;;;11.30;99.90;;;;;;5113427;28;20036;-74
2023/03/22 07:57:05;;;;;;;12.93;4.65;;;11.20;99.90;;;;;;5078641;28;20040;-74
2023/03/22 07:59:31;;;;;;;15.63;4.65;;;11.10;99.90;;;;;;5098423;28;20050;-73
2023/03/22 08:01:57;;;;;;;13.30;3.90;;;11.00;99.90;;;;;;5099435;28;20459;-72
2023/03/22 08:04:23;;;;;;;10.55;3.80;;;11.10;99.90;;;;;;5082338;28;20147;-73
2023/03/22 08:06:50;;;;;;;11.90;4.03;;;11.10;99.90;;;;;;5117129;28;20446;-74
2023/03/22 08:09:16;;;;;;;13.73;4.57;;;11.20;99.90;;;;;;5082197;28;20048;-73
2023/03/22 08:11:42;;;;;;;9.93;4.40;;;11.10;99.90;;;;;;5117190;28;20108;-72
2023/03/22 08:14:07;;;;;;;12.00;3.90;;;11.00;99.90;;;;;;5098806;28;20044;-73
2023/03/22 08:16:34;;;;;;;28.55;4.85;;;11.10;99.90;;;;;;5098760;28;20047;-71
2023/03/22 08:18:59;;;;;;;14.75;4.20;;;11.10;99.90;;;;;;5117001;28;20486;-72
2023/03/22 08:21:26;;;;;;;17.50;4.82;;;11.10;99.90;;;;;;5117096;28;20090;-72
2023/03/22 08:23:52;;;;;;;13.48;4.30;;;11.10;99.90;;;;;;5116975;28;20134;-73
2023/03/22 08:26:17;;;;;;;13.40;3.80;;;11.10;99.90;;;;;;5116749;28;20059;-75
2023/03/22 08:28:43;;;;;;;10.38;3.65;;;11.10;99.90;;;;;;5082277;28;20039;-72
2023/03/22 08:31:14;;;;;;;15.02;3.38;;;11.20;99.90;;;;;;5098932;28;20075;-73
2023/03/22 08:33:40;;;;;;;18.25;3.92;;;11.20;99.90;;;;;;5116569;28;20040;-73
2023/03/22 08:36:09;;;;;;;24.17;4.82;;;11.20;99.90;;;;;;5116815;28;20387;-74
2023/03/22 08:38:35;;;;;;;10.35;3.30;;;11.20;99.90;;;;;;5116572;28;20044;-74
2023/03/22 08:41:02;;;;;;;16.65;3.88;;;11.30;99.90;;;;;;5116899;28;20384;-72
2023/03/22 08:43:27;;;;;;;11.30;3.03;;;11.40;99.90;;;;;;5097771;28;20055;-74
2023/03/22 08:45:53;;;;;;;13.40;3.60;;;11.40;99.90;;;;;;5081583;28;20043;-74
2023/03/22 08:48:19;;;;;;;13.85;3.65;;;11.50;99.90;;;;;;5081590;28;20062;-72
2023/03/22 08:50:45;;;;;;;15.05;4.38;;;11.50;99.90;;;;;;5097989;28;20039;-72
2023/03/22 08:53:12;;;;;;;12.25;3.20;;;11.60;99.90;;;;;;5116165;28;20031;-73
2023/03/22 08:55:43;;;;;;;;;;;11.70;99.90;;;;;;5098729;28;20446;-72
2023/03/22 08:58:10;;;;;;;14.07;3.30;;;11.90;99.90;;;;;;5098851;28;19963;-72
2023/03/22 09:00:37;;;;;;;;;;;12.10;99.90;;;;;;5116549;28;20068;-73
2023/03/22 09:03:04;;;;;;;11.45;3.10;;;12.20;99.90;;;;;;5116561;28;19919;-72
2023/03/22 09:05:30;;;;;;;9.75;2.78;;;12.50;99.90;;;;;;5116707;28;20131;-72
2023/03/22 09:07:55;;;;;;;11.73;3.88;;;12.50;99.90;;;;;;5116441;28;20452;-72
2023/03/22 09:10:21;;;;;;;13.70;3.05;;;12.40;99.90;;;;;;5080695;28;20051;-71
2023/03/22 09:12:47;;;;;;;15.32;2.88;;;12.50;99.90;;;;;;5097831;28;20061;-72
2023/03/22 09:15:13;;;;;;;14.30;2.67;;;12.50;99.90;;;;;;5097932;28;20094;-72
2023/03/22 09:17:39;;;;;;;13.05;2.78;;;12.40;99.90;;;;;;5115739;28;20086;-73
2023/03/22 09:20:06;;;;;;;13.55;2.97;;;12.40;99.90;;;;;;5115703;28;20059;-73
2023/03/22 09:22:31;;;;;;;15.45;3.25;;;12.50;99.90;;;;;;5080482;28;20475;-73
2023/03/22 09:24:57;;;;;;;17.13;2.88;;;12.50;99.90;;;;;;5097439;28;20051;-73
2023/03/22 09:27:23;;;;;;;9.80;2.95;;;12.60;99.90;;;;;;5097417;28;20051;-73
2023/03/22 09:29:51;;;;;;;15.55;3.30;;;12.40;99.90;;;;;;5115465;28;20036;-73
2023/03/22 09:32:17;;;;;;;13.13;2.97;;;12.50;99.90;;;;;;5115444;28;20100;-73
2023/03/22 09:34:42;;;;;;;10.83;2.63;;;12.60;99.90;;;;;;5097543;28;20055;-74
2023/03/22 09:37:11;;;;;;;12.73;3.03;;;12.70;99.90;;;;;;5097372;28;20128;-72
2023/03/22 09:39:39;;;;;;;7.72;2.15;;;12.50;99.90;;;;;;5097305;28;20142;-74
2023/03/22 09:42:06;;;;;;;;;;;12.60;99.90;;;;;;5081856;28;20047;-72
2023/03/22 09:44:41;;;;;;;15.70;2.80;;;12.70;99.90;;;;;;5115544;28;20271;-73
2023/03/22 09:47:15;;;;;;;12.20;2.97;;;12.40;99.90;;;;;;5115263;28;20130;-72
2023/03/22 09:49:46;;;;;;;18.77;3.67;;;12.30;99.90;;;;;;5116881;28;20064;-72
2023/03/22 09:52:14;;;;;;;11.40;2.75;;;12.30;99.90;;;;;;5116994;28;20051;-75
2023/03/22 09:54:42;;;;;;;30.15;4.18;;;12.20;99.90;;;;;;5118110;28;20036;-73
2023/03/22 09:57:26;;;;;;;30.38;4.20;;;12.20;99.90;;;;;;5117783;28;20492;-70
2023/03/22 10:00:34;;;;;;;17.65;3.53;;;12.10;99.90;;;;;;5117725;28;20134;-73
2023/03/22 10:03:09;;;;;;;12.88;2.92;;;12.10;99.90;;;;;;5002553;28;20064;-73
2023/03/22 10:05:43;;;;;;;14.50;2.67;;;11.90;99.90;;;;;;5084091;28;20060;-71
2023/03/22 10:08:47;;;;;;;14.93;3.22;;;11.90;99.90;;;;;;5116391;28;20430;-73
2023/03/22 10:11:22;;;;;;;11.95;3.53;;;11.90;99.90;;;;;;5073491;28;20434;-73
2023/03/22 10:14:09;;;;;;;11.23;2.90;;;11.80;99.90;;;;;;5096689;28;20047;-74
2023/03/22 10:16:35;;;;;;;14.38;3.42;;;11.90;99.90;;;;;;5114571;28;20082;-73
2023/03/22 10:19:11;;;;;;;11.45;3.20;;;11.80;99.90;;;;;;5114466;28;20091;-72
2023/03/22 10:21:38;;;;;;;8.45;2.90;;;11.80;99.90;;;;;;5096088;28;20502;-73
2023/03/22 10:24:28;;;;;;;11.80;3.22;;;11.90;99.90;;;;;;5096408;28;20044;-73
2023/03/22 10:26:54;;;;;;;11.38;2.88;;;11.90;99.90;;;;;;5115057;28;20476;-72
2023/03/22 10:29:33;;;;;;;11.65;2.75;;;11.90;99.90;;;;;;5114510;28;20039;-74
2023/03/22 10:32:10;;;;;;;9.77;2.45;;;12.00;99.90;;;;;;5114160;28;20476;-73
2023/03/22 10:34:35;;;;;;;;;;;12.00;99.90;;;;;;5097056;28;20387;-73
2023/03/22 10:37:05;;;;;;;9.77;2.50;;;12.00;99.90;;;;;;5114335;28;19919;-73
2023/03/22 10:39:38;;;;;;;11.50;2.72;;;11.90;99.90;;;;;;5114269;28;20047;-73
2023/03/22 10:42:15;;;;;;;10.60;2.88;;;12.00;99.90;;;;;;5097071;28;20124;-73
2023/03/22 10:44:54;;;;;;;14.82;2.72;;;11.90;99.90;;;;;;5114095;28;20151;-73
2023/03/22 10:47:49;;;;;;;11.18;2.15;;;11.80;99.90;;;;;;5114116;28;20051;-73
2023/03/22 10:50:23;;;;;;;10.43;2.72;;;11.80;99.90;;;;;;5093603;28;20055;-72
2023/03/22 10:53:00;;;;;;;8.93;2.60;;;11.90;99.90;;;;;;5096118;28;20048;-73
2023/03/22 10:55:26;;;;;;;10.27;1.65;;;11.90;99.90;;;;;;5079651;28;20059;-72
2023/03/22 10:58:11;;;;;;;13.68;2.83;;;11.90;99.90;;;;;;5096570;28;20043;-72
2023/03/22 11:00:42;;;;;;;9.40;2.13;;;11.80;99.90;;;;;;5113998;28;20131;-72
2023/03/22 11:03:07;;;;;;;12.18;2.20;;;11.80;99.90;;;;;;5114280;28;20082;-73
2023/03/22 11:05:33;;;;;;;10.75;2.67;;;11.70;99.90;;;;;;5113847;28;20517;-73
2023/03/22 11:08:01;;;;;;;10.10;1.80;;;11.60;99.90;;;;;;5095788;28;20047;-73
2023/03/22 11:10:31;;;;;;;9.27;1.90;;;11.70;99.90;;;;;;5112667;28;20043;-72
2023/03/22 11:13:06;;;;;;;11.18;2.67;;;11.70;99.90;;;;;;5096233;28;20487;-73
2023/03/22 11:15:34;;;;;;;10.25;2.33;;;11.60;99.90;;;;;;5114670;28;20413;-73
2023/03/22 11:18:11;;;;;;;11.32;2.20;;;11.50;99.90;;;;;;5096765;28;20104;-73
2023/03/22 11:20:41;;;;;;;8.27;2.00;;;11.50;99.90;;;;;;5114529;28;20058;-72
2023/03/22 11:23:10;;;;;;;8.65;2.15;;;11.50;99.90;;;;;;5095226;28;20094;-72
2023/03/22 11:25:43;;;;;;;11.82;2.60;;;11.40;99.90;;;;;;5079286;28;20051;-74
2023/03/22 11:28:20;;;;;;;10.70;2.40;;;11.30;99.90;;;;;;5114338;28;20050;-73
2023/03/22 11:31:13;;;;;;;11.38;2.67;;;11.30;99.90;;;;;;5114080;28;20043;-72
2023/03/22 11:33:57;;;;;;;10.63;2.67;;;11.30;99.90;;;;;;5094982;28;20558;-73
2023/03/22 11:36:24;;;;;;;9.00;2.72;;;11.40;99.90;;;;;;5100468;28;20040;-72
2023/03/22 11:39:00;;;;;;;14.32;3.08;;;11.30;99.90;;;;;;5099575;28;20047;-72
2023/03/22 11:41:34;;;;;;;10.60;2.90;;;11.20;99.90;;;;;;5117783;28;20052;-73
2023/03/22 11:44:11;;;;;;;12.30;3.20;;;11.20;99.90;;;;;;5117543;28;20123;-73
2023/03/22 11:46:37;;;;;;;11.32;3.10;;;11.20;99.90;;;;;;5117573;28;20052;-73
2023/03/22 11:49:16;;;;;;;9.82;3.67;;;11.30;99.90;;;;;;5117818;28;20040;-75
2023/03/22 11:51:43;;;;;;;11.40;3.00;;;11.40;99.90;;;;;;5099479;28;20039;-72
2023/03/22 11:54:24;;;;;;;11.35;3.65;;;11.50;99.90;;;;;;5099233;28;20044;-73
2023/03/22 11:56:50;;;;;;;10.68;3.58;;;11.50;99.90;;;;;;5099316;28;20051;-72
2023/03/22 11:59:24;;;;;;;13.00;3.65;;;11.50;99.90;;;;;;5099082;28;20043;-73
2023/03/22 12:01:53;;;;;;;11.32;3.25;;;11.60;99.90;;;;;;5117427;28;20047;-74
2023/03/22 12:04:26;;;;;;;14.15;3.53;;;11.70;99.90;;;;;;5117844;28;20039;-72
2023/03/22 12:06:56;;;;;;;15.65;3.05;;;11.70;99.90;;;;;;5098932;28;20101;-73
2023/03/22 12:09:22;;;;;;;10.68;2.55;;;11.60;99.90;;;;;;5117618;28;20053;-73
2023/03/22 12:11:51;;;;;;;11.68;3.60;;;11.50;99.90;;;;;;5116968;28;20043;-73
2023/03/22 12:14:38;;;;;;;14.30;3.75;;;11.50;99.90;;;;;;5099261;28;20039;-73
2023/03/22 12:17:11;;;;;;;10.80;3.30;;;11.50;99.90;;;;;;5099237;28;20058;-74
2023/03/22 12:20:05;;;;;;;12.85;3.83;;;11.50;99.90;;;;;;5098602;28;20051;-73
2023/03/22 12:22:34;;;;;;;9.30;3.55;;;11.60;99.90;;;;;;5116748;28;20138;-71
2023/03/22 12:25:02;;;;;;;10.40;3.03;;;11.60;99.90;;;;;;5098365;28;20089;-71
2023/03/22 12:27:35;;;;;;;12.65;3.08;;;11.50;99.90;;;;;;5116308;28;20050;-74
2023/03/22 12:30:32;;;;;;;12.68;3.85;;;11.50;99.90;;;;;;5116446;28;20127;-71
2023/03/22 12:33:08;;;;;;;8.50;3.00;;;11.40;99.90;;;;;;5074970;28;20051;-72
2023/03/22 12:35:37;;;;;;;9.00;3.10;;;11.40;99.90;;;;;;5115733;28;20119;-72
2023/03/22 12:38:26;;;;;;;10.32;3.55;;;11.40;99.90;;;;;;5116290;28;20101;-74
2023/03/22 12:40:55;;;;;;;12.35;2.92;;;11.40;99.90;;;;;;5098753;28;20050;-74
2023/03/22 12:43:40;;;;;;;8.40;3.20;;;11.40;99.90;;;;;;5116482;28;20044;-73
2023/03/22 12:46:09;;;;;;;12.00;2.90;;;11.40;99.90;;;;;;5098164;28;20107;-73
2023/03/22 12:49:15;;;;;;;8.40;3.08;;;11.40;99.90;;;;;;5116800;28;20210;-73
2023/03/22 12:51:42;;;;;;;10.52;3.75;;;11.40;99.90;;;;;;5101964;28;20047;-74
2023/03/22 12:54:11;;;;;;;9.38;2.50;;;11.40;99.90;;;;;;5116209;28;20046;-72
2023/03/22 12:56:41;;;;;;;10.63;3.60;;;11.50;99.90;;;;;;5116062;28;20058;-73
2023/03/22 12:59:20;;;;;;;8.80;2.30;;;11.30;99.90;;;;;;5098074;28;20051;-73